Time;durP1;ratioP1;P1;durP2;ratioP2;P2;SDS_P1;SDS_P2;PMS_P1;PMS_P2;Temp;Humidity;BMP_temperature;BMP_pressure;BME280_temperature;BME280_humidity;BME280_pressure;Samples;Min_cycle;Max_cycle;Signal;HPM_P1;HPM_P2
2022/11/22 00:01:41;;;;;;;0.63;0.43;;;;;;;0.37;100.00;98423.89;1702412;82;21086;-49
2022/11/22 00:04:08;;;;;;;0.50;0.40;;;;;;;0.37;100.00;98426.54;1700021;82;21086;-48
2022/11/22 00:06:36;;;;;;;0.50;0.40;;;;;;;0.39;100.00;98433.98;1690383;82;21081;-48
2022/11/22 00:09:02;;;;;;;0.60;0.50;;;;;;;0.36;100.00;98434.94;1687693;82;21762;-48
2022/11/22 00:11:29;;;;;;;0.67;0.37;;;;;;;0.35;100.00;98442.91;1701216;82;22037;-48
2022/11/22 00:13:55;;;;;;;0.60;0.47;;;;;;;0.32;100.00;98446.53;1687398;82;21061;-49
2022/11/22 00:32:40;;;;;;;0.83;0.30;;;;;;;0.26;100.00;98445.36;1793717;78;27331;-52
2022/11/22 00:35:08;;;;;;;0.40;0.30;;;;;;;0.17;100.00;98454.04;1771417;79;21697;-50
2022/11/22 00:38:33;;;;;;;0.37;0.33;;;;;;;0.12;100.00;98433.43;1775919;78;27394;-48
2022/11/22 00:41:00;;;;;;;0.30;0.30;;;;;;;0.12;100.00;98450.62;1743143;80;21366;-50
2022/11/22 00:43:27;;;;;;;0.40;0.30;;;;;;;0.08;100.00;98449.86;1733911;80;24061;-48
2022/11/22 00:46:11;;;;;;;0.20;0.20;;;;;;;0.04;100.00;98447.32;1743662;80;21566;-47
2022/11/22 00:48:37;;;;;;;0.30;0.30;;;;;;;0.04;100.00;98447.32;1747565;80;21310;-48
2022/11/22 00:54:27;;;;;;;0.50;0.30;;;;;;;0.05;100.00;116433.64;1739810;80;21722;-46
2022/11/22 11:03:31;;;;;;;3.63;3.33;;;;;;;;;;1789854;78;27192;-51
2022/11/22 11:06:22;;;;;;;2.73;2.53;;;;;;;;;;1770748;78;21184;-50
2022/11/22 11:08:51;;;;;;;3.60;3.23;;;;;;;;;;1778741;78;21852;-50
2022/11/22 11:11:20;;;;;;;3.97;3.57;;;;;;;;;;1776071;78;21043;-51
2022/11/22 11:13:56;;;;;;;3.53;3.27;;;;;;;;;;1776503;78;21129;-51
2022/11/22 11:16:24;;;;;;;2.83;2.63;;;;;;;;;;1777379;78;21041;-51
2022/11/22 11:19:11;;;;;;;4.60;3.87;;;;;;;;;;1781402;78;21049;-50
2022/11/22 11:21:37;;;;;;;4.07;3.70;;;;;;;;;;1779862;78;22538;-51
2022/11/22 11:24:12;;;;;;;4.10;3.37;;;;;;;;;;1773142;78;21504;-51
2022/11/22 11:26:41;;;;;;;3.47;3.07;;;;;;;;;;1778594;78;21029;-51
2022/11/22 11:29:19;;;;;;;3.80;3.40;;;;;;;;;;1779561;78;21039;-49
2022/11/22 11:31:50;;;;;;;4.33;3.03;;;;;;;;;;1709239;82;21053;-50
2022/11/22 11:34:26;;;;;;;3.83;3.07;;;;;;;;;;1701423;82;21846;-50
2022/11/22 11:36:53;;;;;;;3.23;2.93;;;;;;;;;;1715156;81;21138;-51
2022/11/22 11:39:20;;;;;;;3.47;2.93;;;;;;;;;;1706358;82;21096;-51
2022/11/22 11:41:46;;;;;;;4.33;3.47;;;;;;;;;;1702013;82;21401;-51
2022/11/22 11:44:35;;;;;;;3.70;3.40;;;;;;;;;;1702860;82;21093;-51
2022/11/22 11:47:03;;;;;;;4.57;3.70;;;;;;;;;;1717314;81;21582;-51
2022/11/22 11:49:32;;;;;;;2.93;2.70;;;;;;;;;;1745469;80;21264;-50
2022/11/22 11:52:02;;;;;;;4.40;3.40;;;;;;;;;;1718042;81;21112;-50
2022/11/22 11:54:35;;;;;;;3.80;3.43;;;;;;;;;;1719045;81;21092;-50
2022/11/22 11:57:03;;;;;;;2.83;2.52;;;;;;;;;;1742206;81;22069;-50
2022/11/22 11:59:42;;;;;;;3.97;3.53;;;;;;;;;;1704059;82;21842;-50
2022/11/22 12:02:15;;;;;;;2.90;2.70;;;;;;;;;;1734769;80;21182;-50
2022/11/22 12:06:30;;;;;;;2.77;2.50;;;;;;;0.24;100.00;98913.46;1868124;75;27292;-49
2022/11/22 12:08:57;;;;;;;3.50;2.77;;;;;;;0.20;100.00;98924.55;1844910;77;21097;-49
2022/11/22 12:11:41;;;;;;;3.27;2.80;;;;;;;0.20;100.00;98927.64;1842014;77;21825;-49
2022/11/22 12:14:11;;;;;;;3.40;3.10;;;;;;;0.22;100.00;98924.52;1840111;76;21122;-51
2022/11/22 12:16:41;;;;;;;4.53;3.37;;;;;;;0.24;100.00;98930.66;1845306;77;21592;-51
2022/11/22 12:19:31;;;;;;;2.97;2.50;;;;;;;0.23;100.00;98944.34;1843693;76;21013;-51
2022/11/22 12:22:26;;;;;;;3.80;3.50;;;;;;;0.26;100.00;98957.50;1844220;77;21036;-49
2022/11/22 12:25:15;;;;;;;4.65;3.87;;;;;;;0.26;100.00;98967.22;1840726;76;21755;-47
2022/11/22 12:27:43;;;;;;;3.50;3.20;;;;;;;0.28;100.00;98965.42;1806237;77;21052;-49
2022/11/22 12:30:11;;;;;;;7.23;4.70;;;;;;;0.28;100.00;98964.09;1749682;78;21072;-49
2022/11/22 12:32:42;;;;;;;4.27;3.87;;;;;;;0.28;100.00;98959.67;1804086;78;21432;-49
2022/11/22 12:35:15;;;;;;;4.87;4.37;;;;;;;0.29;100.00;98961.88;1808169;78;21154;-49
2022/11/22 12:37:52;;;;;;;6.33;4.60;;;;;;;0.27;100.00;98971.61;1778072;78;21801;-48
2022/11/22 12:40:26;;;;;;;6.37;5.17;;;;;;;0.26;100.00;98969.86;1777751;78;21554;-49
2022/11/22 12:42:58;;;;;;;;;;;;;;;0.24;100.00;98973.89;1762849;79;21081;-51
2022/11/22 12:45:38;;;;;;;6.50;5.87;;;;;;;0.25;100.00;98975.64;1785572;79;20886;-54
2022/11/22 12:48:21;;;;;;;7.40;5.90;;;;;;;0.25;100.00;98975.64;1788841;79;21083;-49
2022/11/22 12:50:53;;;;;;;6.87;5.83;;;;;;;0.25;100.00;98972.98;1786687;78;21912;-51
2022/11/22 12:53:31;;;;;;;5.70;5.10;;;;;;;0.25;100.00;98967.70;1789083;78;21112;-50
2022/11/22 12:56:12;;;;;;;7.27;5.90;;;;;;;0.25;100.00;98966.83;1787105;78;21055;-49
2022/11/22 12:59:29;;;;;;;5.67;5.07;;;;;;;0.25;100.00;98967.70;1786274;79;21208;-51
2022/11/22 13:02:33;;;;;;;5.03;3.72;;;;;;;0.27;100.00;98980.88;1787698;78;21138;-50
2022/11/22 13:05:24;;;;;;;5.57;5.03;;;;;;;0.28;100.00;98978.66;1788824;78;21825;-49
2022/11/22 13:08:13;;;;;;;6.73;5.23;;;;;;;0.29;100.00;98987.89;1792072;78;21044;-52
2022/11/22 13:11:04;;;;;;;5.53;4.97;;;;;;;0.30;100.00;98984.80;1777591;79;21143;-49
2022/11/22 13:13:36;;;;;;;5.37;4.80;;;;;;;0.30;100.00;98988.77;1752712;79;21527;-50
2022/11/22 13:16:08;;;;;;;5.87;4.83;;;;;;;0.29;100.00;98983.05;1784373;79;21451;-50
2022/11/22 13:18:38;;;;;;;5.27;4.17;;;;;;;0.27;100.00;98978.23;1781003;78;21986;-49
2022/11/22 13:21:45;;;;;;;5.83;3.50;;;;;;;0.24;100.00;98977.86;1779295;78;21052;-50
2022/11/22 13:24:30;;;;;;;3.90;3.35;;;;;;;0.24;100.00;98971.69;1709103;79;21066;-49
2022/11/22 13:38:57;;;;;;;4.45;3.98;;;;;;;-144.06;100.00;116433.64;1783461;79;21622;-47
2022/11/22 14:30:55;;;;;;;6.37;4.07;;;;;;;;;;1789837;77;27337;-51
2022/11/22 14:33:23;;;;;;;9.30;6.80;;;;;;;;;;1771588;79;21396;-49
2022/11/22 14:36:10;;;;;;;7.33;5.03;;;;;;;;;;1769186;79;22721;-49
2022/11/22 14:38:39;;;;;;;7.00;5.57;;;;;;;;;;1770450;79;21069;-50
2022/11/22 14:41:26;;;;;;;6.50;5.27;;;;;;;;;;1747283;79;21025;-50
2022/11/22 14:44:11;;;;;;;7.20;5.70;;;;;;;;;;1769497;79;22226;-49
2022/11/22 14:46:48;;;;;;;6.67;5.10;;;;;;;;;;1752886;79;21396;-49
2022/11/22 14:49:33;;;;;;;7.83;5.77;;;;;;;;;;1769416;79;21859;-49
2022/11/22 14:51:59;;;;;;;6.95;5.30;;;;;;;;;;1766452;79;21038;-49
2022/11/22 14:54:31;;;;;;;7.30;6.07;;;;;;;;;;1773585;79;21037;-49
2022/11/22 14:56:59;;;;;;;7.53;5.50;;;;;;;;;;1770946;79;21027;-48
2022/11/22 14:59:41;;;;;;;8.47;5.73;;;;;;;;;;1771047;79;21337;-52
2022/11/22 15:02:34;;;;;;;9.70;7.27;;;;;;;;;;1764801;79;21843;-50
2022/11/22 15:05:11;;;;;;;8.07;6.30;;;;;;;;;;1771635;78;21393;-49
2022/11/22 15:07:51;;;;;;;11.20;7.60;;;;;;;;;;1773040;78;21029;-49
2022/11/22 15:10:25;;;;;;;14.17;7.77;;;;;;;;;;1770842;79;21648;-48
2022/11/22 15:13:16;;;;;;;9.67;6.90;;;;;;;;;;1773171;78;21691;-48
2022/11/22 15:15:45;;;;;;;9.63;7.83;;;;;;;;;;1773106;79;23368;-51
2022/11/22 15:18:23;;;;;;;10.57;7.77;;;;;;;;;;1767546;78;21518;-48
2022/11/22 15:20:49;;;;;;;13.03;8.83;;;;;;;;;;1769611;79;21076;-48
2022/11/22 15:23:19;;;;;;;11.60;8.27;;;;;;;;;;1765566;79;21483;-51
2022/11/22 15:25:46;;;;;;;11.90;7.83;;;;;;;;;;1769705;79;21048;-48
2022/11/22 15:28:20;;;;;;;18.07;10.87;;;;;;;;;;1763956;79;21907;-49
2022/11/22 15:30:48;;;;;;;14.10;9.40;;;;;;;;;;1759573;79;22801;-50
2022/11/22 15:33:33;;;;;;;13.53;9.70;;;;;;;;;;1756397;80;21038;-49
2022/11/22 15:36:19;;;;;;;11.73;8.37;;;;;;;;;;1753487;79;21125;-49
2022/11/22 15:38:45;;;;;;;15.50;8.87;;;;;;;;;;1758351;80;21093;-48
2022/11/22 15:41:22;;;;;;;14.07;9.73;;;;;;;;;;1759188;80;22538;-48
2022/11/22 15:43:49;;;;;;;15.57;10.23;;;;;;;;;;1760195;80;20999;-48
2022/11/22 15:46:16;;;;;;;15.27;9.93;;;;;;;;;;1753665;80;21105;-51
2022/11/22 15:48:43;;;;;;;14.67;10.03;;;;;;;;;;1757240;79;21044;-48
2022/11/22 15:51:15;;;;;;;15.23;10.10;;;;;;;;;;1753087;79;21054;-49
2022/11/22 15:54:04;;;;;;;15.53;9.43;;;;;;;;;;1760116;79;21786;-51
2022/11/22 15:56:48;;;;;;;12.40;9.30;;;;;;;;;;1756983;80;21054;-49
2022/11/22 15:59:28;;;;;;;14.63;9.15;;;;;;;;;;1761087;79;21082;-49
2022/11/22 16:01:56;;;;;;;16.83;10.13;;;;;;;;;;1754557;79;21071;-47
2022/11/22 16:04:34;;;;;;;14.40;9.93;;;;;;;;;;1758584;80;21173;-49
2022/11/22 16:07:02;;;;;;;18.20;10.97;;;;;;;;;;1757738;79;22030;-48
2022/11/22 16:09:32;;;;;;;14.50;10.27;;;;;;;;;;1753843;80;21246;-48
2022/11/22 16:12:01;;;;;;;16.30;10.70;;;;;;;;;;1758499;79;21027;-48
2022/11/22 16:14:46;;;;;;;13.53;10.00;;;;;;;;;;1756964;80;21093;-48
2022/11/22 16:17:21;;;;;;;15.37;10.57;;;;;;;;;;1754252;79;20993;-50
2022/11/22 16:19:47;;;;;;;16.37;9.90;;;;;;;;;;1759964;79;21877;-48
2022/11/22 16:22:30;;;;;;;14.03;9.67;;;;;;;;;;1753799;79;21603;-48
2022/11/22 16:25:21;;;;;;;16.10;9.77;;;;;;;;;;1755241;80;21056;-49
2022/11/22 16:27:48;;;;;;;16.43;10.40;;;;;;;;;;1760079;80;21533;-49
2022/11/22 16:30:14;;;;;;;15.10;10.73;;;;;;;;;;1758047;79;21053;-50
2022/11/22 16:32:42;;;;;;;15.43;10.50;;;;;;;;;;1765206;79;21123;-51
2022/11/22 16:35:13;;;;;;;15.07;10.47;;;;;;;;;;1759077;79;21515;-50
2022/11/22 16:37:43;;;;;;;15.33;9.97;;;;;;;;;;1763712;79;21081;-51
2022/11/22 16:40:14;;;;;;;13.00;8.93;;;;;;;;;;1760584;79;21096;-49
2022/11/22 16:42:41;;;;;;;15.60;10.03;;;;;;;;;;1740976;79;21058;-49
2022/11/22 16:45:14;;;;;;;12.40;8.73;;;;;;;;;;1769053;79;21838;-49
2022/11/22 16:47:42;;;;;;;12.73;8.60;;;;;;;;;;1760257;79;21081;-48
2022/11/22 16:50:13;;;;;;;12.00;7.83;;;;;;;;;;1760764;79;21515;-48
2022/11/22 16:52:40;;;;;;;12.53;8.17;;;;;;;;;;1765979;79;21088;-48
2022/11/22 16:55:16;;;;;;;13.10;8.10;;;;;;;;;;1761005;79;21490;-49
2022/11/22 16:57:42;;;;;;;12.73;7.70;;;;;;;;;;1766291;79;21912;-49
2022/11/22 17:00:09;;;;;;;9.40;7.53;;;;;;;;;;1764404;79;21049;-48
2022/11/22 17:02:38;;;;;;;11.57;7.67;;;;;;;;;;1766866;79;21059;-49
2022/11/22 17:05:05;;;;;;;13.13;8.17;;;;;;;;;;1763421;79;21073;-50
2022/11/22 17:07:32;;;;;;;13.37;8.73;;;;;;;;;;1764049;79;21371;-50
2022/11/22 17:10:00;;;;;;;12.93;9.13;;;;;;;;;;1759194;79;22060;-50
2022/11/22 17:12:26;;;;;;;15.97;11.50;;;;;;;;;;1762970;79;21076;-49
2022/11/22 17:14:52;;;;;;;15.37;9.93;;;;;;;;;;1762113;79;21051;-48
2022/11/22 17:17:19;;;;;;;14.97;10.07;;;;;;;;;;1763154;79;21433;-48
2022/11/22 17:19:46;;;;;;;19.67;11.53;;;;;;;;;;1762591;79;21739;-50
2022/11/22 17:22:14;;;;;;;11.03;7.83;;;;;;;;;;1767710;79;21904;-48
2022/11/22 17:24:40;;;;;;;13.97;8.80;;;;;;;;;;1764655;79;21562;-49
2022/11/22 17:27:12;;;;;;;15.83;9.67;;;;;;;;;;1763744;79;21125;-48
2022/11/22 17:29:39;;;;;;;14.77;6.90;;;;;;;;;;1762708;79;21017;-51
2022/11/22 17:32:05;;;;;;;13.17;8.63;;;;;;;;;;1770670;79;21566;-49
2022/11/22 17:34:33;;;;;;;12.80;8.20;;;;;;;;;;1731774;82;21678;-49
2022/11/22 17:36:59;;;;;;;10.17;7.30;;;;;;;;;;1708444;82;21117;-50
2022/11/22 17:39:26;;;;;;;12.83;8.43;;;;;;;;;;1707693;82;21045;-50
2022/11/22 17:41:52;;;;;;;12.73;8.03;;;;;;;;;;1709974;82;21321;-50
2022/11/22 17:44:18;;;;;;;12.33;8.17;;;;;;;;;;1707873;82;21547;-48
2022/11/22 17:46:45;;;;;;;13.67;9.03;;;;;;;;;;1696067;82;21983;-49
2022/11/22 17:49:13;;;;;;;15.17;9.53;;;;;;;;;;1723504;81;21136;-49
2022/11/22 17:51:39;;;;;;;14.57;9.00;;;;;;;;;;1722161;81;21537;-48
2022/11/22 17:54:07;;;;;;;12.57;9.47;;;;;;;;;;1721238;81;21401;-51
2022/11/22 17:56:35;;;;;;;13.27;8.23;;;;;;;;;;1720069;81;22216;-47
2022/11/22 17:59:01;;;;;;;17.23;9.90;;;;;;;;;;1721193;81;21848;-49
2022/11/22 18:01:27;;;;;;;15.17;9.40;;;;;;;;;;1721007;81;21009;-47
2022/11/22 18:03:53;;;;;;;15.43;10.17;;;;;;;;;;1724617;81;21130;-47
2022/11/22 18:06:20;;;;;;;15.07;9.43;;;;;;;;;;1722941;81;22363;-48
2022/11/22 18:08:46;;;;;;;16.70;10.57;;;;;;;;;;1711412;82;21107;-50
2022/11/22 18:11:13;;;;;;;15.80;10.07;;;;;;;;;;1708290;82;23225;-48
2022/11/22 18:19:24;;;;;;;16.10;9.70;;;;;;;;;;1664313;84;21131;-50
2022/11/22 18:21:50;;;;;;;12.77;8.73;;;;;;;;;;1668786;84;21786;-49
2022/11/22 18:24:16;;;;;;;14.53;9.80;;;;;;;;;;1662234;84;21071;-49
2022/11/22 18:26:43;;;;;;;15.53;10.07;;;;;;;;;;1686371;83;21101;-49
2022/11/22 18:29:10;;;;;;;16.80;10.90;;;;;;;;;;1687292;83;21546;-49
2022/11/22 18:31:37;;;;;;;14.90;9.87;;;;;;;;;;1685805;83;21161;-49
2022/11/22 18:34:03;;;;;;;18.03;11.77;;;;;;;;;;1686386;83;21476;-49
2022/11/22 18:36:29;;;;;;;15.43;10.67;;;;;;;;;;1682998;83;21079;-49
2022/11/22 18:38:56;;;;;;;17.67;11.87;;;;;;;;;;1649302;84;21076;-49
2022/11/22 18:41:22;;;;;;;16.23;11.00;;;;;;;;;;1694321;83;21336;-49
2022/11/22 18:43:48;;;;;;;15.70;9.83;;;;;;;;;;1687057;83;21191;-49
2022/11/22 18:46:14;;;;;;;20.37;11.63;;;;;;;;;;1688532;83;21973;-49
2022/11/22 18:48:41;;;;;;;15.40;10.83;;;;;;;;;;1686094;83;21083;-49
2022/11/22 18:51:07;;;;;;;14.43;10.57;;;;;;;;;;1685227;83;21120;-49
2022/11/22 18:53:34;;;;;;;16.07;10.67;;;;;;;;;;1688466;83;21848;-49
2022/11/22 18:56:08;;;;;;;15.57;10.50;;;;;;;;;;1689106;83;22424;-49
2022/11/22 18:58:35;;;;;;;13.32;9.83;;;;;;;;;;1686150;83;21823;-49
2022/11/22 19:01:11;;;;;;;14.47;9.67;;;;;;;;;;1685896;83;21718;-49
2022/11/22 19:03:37;;;;;;;17.57;9.93;;;;;;;;;;1684038;83;21094;-49
2022/11/22 19:06:06;;;;;;;16.03;10.53;;;;;;;;;;1685627;83;21109;-49
2022/11/22 19:08:38;;;;;;;16.87;10.23;;;;;;;;;;1683134;83;21594;-50
2022/11/22 19:11:05;;;;;;;18.67;11.80;;;;;;;;;;1687579;83;22723;-49
2022/11/22 19:13:33;;;;;;;18.60;10.73;;;;;;;;;;1686171;83;21411;-49
2022/11/22 19:16:09;;;;;;;18.23;11.13;;;;;;;;;;1692719;82;21012;-48
2022/11/22 19:18:37;;;;;;;15.43;10.90;;;;;;;;;;1699685;82;21580;-49
2022/11/22 19:21:15;;;;;;;16.93;10.87;;;;;;;;;;1707381;82;21077;-49
2022/11/22 19:23:41;;;;;;;17.83;11.23;;;;;;;;;;1667374;84;24064;-49
2022/11/22 19:29:30;;;;;;;17.43;10.33;;;;;;;;;;1706499;80;21074;-78
2022/11/22 19:31:56;;;;;;;15.40;10.23;;;;;;;;;;1735011;80;21397;-77
2022/11/22 19:34:23;;;;;;;14.43;9.63;;;;;;;;;;1701067;82;22456;-78
2022/11/22 19:36:49;;;;;;;17.83;11.23;;;;;;;;;;1703280;82;21870;-78
2022/11/22 19:39:15;;;;;;;15.83;10.07;;;;;;;;;;1739457;80;21047;-79
2022/11/22 19:41:42;;;;;;;16.80;10.63;;;;;;;;;;1734828;80;21059;-78
2022/11/22 19:44:08;;;;;;;14.83;10.20;;;;;;;;;;1702098;82;21614;-78
2022/11/22 19:46:37;;;;;;;15.37;9.87;;;;;;;;;;1704888;82;21078;-77
2022/11/22 19:49:04;;;;;;;15.33;10.70;;;;;;;;;;1704356;82;21805;-77
2022/11/22 19:51:31;;;;;;;16.47;11.20;;;;;;;;;;1705208;82;21050;-76
2022/11/22 19:53:58;;;;;;;14.70;10.93;;;;;;;;;;1708380;82;21048;-76
2022/11/22 19:56:28;;;;;;;18.07;13.23;;;;;;;;;;1705177;82;21075;-77
2022/11/22 19:58:54;;;;;;;17.07;11.97;;;;;;;;;;1733336;80;22208;-78
2022/11/22 20:01:21;;;;;;;16.57;11.20;;;;;;;;;;1697561;82;21810;-79
2022/11/22 20:03:52;;;;;;;15.23;10.93;;;;;;;;;;1693058;83;21063;-79
2022/11/22 20:06:18;;;;;;;17.40;12.83;;;;;;;;;;1734048;80;21142;-76
2022/11/22 20:08:44;;;;;;;16.63;11.43;;;;;;;;;;1734007;80;21931;-77
2022/11/22 20:11:12;;;;;;;16.40;10.27;;;;;;;;;;1736236;80;21051;-78
2022/11/22 20:13:41;;;;;;;15.07;10.03;;;;;;;;;;1735738;80;22442;-78
2022/11/22 20:16:11;;;;;;;14.30;9.87;;;;;;;;;;1734115;80;21132;-78
2022/11/22 20:18:37;;;;;;;13.33;9.37;;;;;;;;;;1695398;82;21361;-78
2022/11/22 20:21:04;;;;;;;13.37;8.23;;;;;;;;;;1708000;82;21826;-76
2022/11/22 20:23:32;;;;;;;11.93;9.40;;;;;;;;;;1736351;80;21081;-78
2022/11/22 20:26:03;;;;;;;13.33;9.07;;;;;;;;;;1739092;80;21817;-77
2022/11/22 20:28:30;;;;;;;11.83;9.07;;;;;;;;;;1710605;82;21595;-76
2022/11/22 20:31:14;;;;;;;13.83;8.83;;;;;;;;;;1700910;82;21119;-76
2022/11/22 20:33:42;;;;;;;11.50;7.43;;;;;;;;;;1716824;82;21032;-77
2022/11/22 20:36:10;;;;;;;13.27;8.53;;;;;;;;;;1702900;82;21099;-77
2022/11/22 20:38:38;;;;;;;11.27;8.70;;;;;;;;;;1711384;82;22252;-77
2022/11/22 20:41:05;;;;;;;8.13;6.53;;;;;;;;;;1706100;82;21055;-77
2022/11/22 20:43:32;;;;;;;9.27;7.07;;;;;;;;;;1715027;82;21518;-79
2022/11/22 20:46:03;;;;;;;11.77;7.67;;;;;;;;;;1735294;80;21067;-76
2022/11/22 20:48:30;;;;;;;9.10;7.23;;;;;;;;;;1705968;82;21072;-77
2022/11/22 20:50:58;;;;;;;12.87;8.50;;;;;;;;;;1737035;80;21796;-77
2022/11/22 20:53:25;;;;;;;10.83;7.20;;;;;;;;;;1735633;80;21080;-76
2022/11/22 20:55:52;;;;;;;8.87;6.17;;;;;;;;;;1734122;80;21552;-77
2022/11/22 20:58:18;;;;;;;9.23;5.83;;;;;;;;;;1734636;80;21063;-76
2022/11/22 21:00:45;;;;;;;7.07;5.77;;;;;;;;;;1737214;80;21038;-77
2022/11/22 21:03:11;;;;;;;7.80;5.93;;;;;;;;;;1733995;80;23250;-76
2022/11/22 21:05:38;;;;;;;9.00;6.30;;;;;;;;;;1733172;80;21073;-80
2022/11/22 21:08:05;;;;;;;7.07;6.10;;;;;;;;;;1733635;80;21068;-76
2022/11/22 21:10:32;;;;;;;8.23;6.97;;;;;;;;;;1733643;80;21044;-77
2022/11/22 21:12:58;;;;;;;10.90;6.53;;;;;;;;;;1733058;80;21061;-77
2022/11/22 21:15:25;;;;;;;7.77;6.27;;;;;;;;;;1704737;82;21870;-79
2022/11/22 21:17:51;;;;;;;10.50;6.17;;;;;;;;;;1700375;82;21063;-77
2022/11/22 21:20:19;;;;;;;9.20;6.33;;;;;;;;;;1704660;82;21083;-79
2022/11/22 21:22:45;;;;;;;9.63;6.00;;;;;;;;;;1737356;80;21206;-77
2022/11/22 21:25:11;;;;;;;7.30;5.60;;;;;;;;;;1738439;80;21640;-79
2022/11/22 21:27:38;;;;;;;9.17;6.93;;;;;;;;;;1737538;80;21813;-77
2022/11/22 21:30:05;;;;;;;9.37;6.63;;;;;;;;;;1738755;80;21082;-79
2022/11/22 21:32:32;;;;;;;7.80;5.93;;;;;;;;;;1787116;78;21080;-79
2022/11/22 21:34:59;;;;;;;8.47;5.23;;;;;;;;;;1786846;78;21421;-77
2022/11/22 21:37:27;;;;;;;8.17;5.77;;;;;;;;;;1783910;78;21609;-79
2022/11/22 21:39:53;;;;;;;7.83;5.47;;;;;;;;;;1780472;78;21863;-78
2022/11/22 21:42:20;;;;;;;6.97;5.07;;;;;;;;;;1782294;78;21024;-78
2022/11/22 21:44:46;;;;;;;8.90;4.97;;;;;;;;;;1786091;78;21032;-78
2022/11/22 21:47:13;;;;;;;5.70;5.13;;;;;;;;;;1784999;78;21021;-77
2022/11/22 21:49:39;;;;;;;7.27;5.87;;;;;;;;;;1786318;78;21572;-78
2022/11/22 21:52:05;;;;;;;5.97;5.37;;;;;;;;;;1785434;78;23008;-78
2022/11/22 21:54:33;;;;;;;7.00;5.10;;;;;;;;;;1792112;78;21236;-77
2022/11/22 21:57:00;;;;;;;6.10;4.00;;;;;;;;;;1785473;78;21056;-77
2022/11/22 21:59:28;;;;;;;5.20;4.30;;;;;;;;;;1786836;78;21216;-79
2022/11/22 22:01:54;;;;;;;5.67;4.40;;;;;;;;;;1784692;78;21067;-79
2022/11/22 22:04:20;;;;;;;8.17;4.07;;;;;;;;;;1783530;78;21513;-77
2022/11/22 22:06:46;;;;;;;6.57;3.73;;;;;;;;;;1780188;78;21088;-77
2022/11/22 22:09:14;;;;;;;3.53;3.20;;;;;;;;;;1784040;78;21059;-77
2022/11/22 22:11:43;;;;;;;3.73;2.70;;;;;;;;;;1785883;78;21585;-79
2022/11/22 22:14:09;;;;;;;2.90;2.43;;;;;;;;;;1786399;78;21013;-79
2022/11/22 22:16:35;;;;;;;3.63;2.40;;;;;;;;;;1785791;78;23132;-78
2022/11/22 22:19:07;;;;;;;3.37;2.23;;;;;;;;;;1789768;78;21079;-79
2022/11/22 22:21:34;;;;;;;3.97;2.73;;;;;;;;;;1786476;78;21036;-76
2022/11/22 22:24:00;;;;;;;3.47;2.83;;;;;;;;;;1789718;78;21049;-77
2022/11/22 22:26:29;;;;;;;4.50;3.47;;;;;;;;;;1788960;78;21012;-77
2022/11/22 22:28:56;;;;;;;3.67;3.13;;;;;;;;;;1782083;78;21866;-78
2022/11/22 22:31:22;;;;;;;4.03;3.20;;;;;;;;;;1781438;78;21089;-76
2022/11/22 22:33:50;;;;;;;3.70;3.03;;;;;;;;;;1776826;78;21064;-76
2022/11/22 22:36:16;;;;;;;3.30;2.30;;;;;;;;;;1784632;78;21072;-77
2022/11/22 22:38:43;;;;;;;4.90;3.27;;;;;;;;;;1782843;78;21032;-77
2022/11/22 22:41:10;;;;;;;3.03;2.60;;;;;;;;;;1782095;78;21871;-76
2022/11/22 22:43:38;;;;;;;3.53;2.87;;;;;;;;;;1780977;78;21041;-76
2022/11/22 22:46:11;;;;;;;3.60;2.90;;;;;;;;;;1776966;78;21056;-76
2022/11/22 22:48:37;;;;;;;7.73;3.43;;;;;;;;;;1775668;79;21059;-76
2022/11/22 22:51:06;;;;;;;3.47;3.17;;;;;;;;;;1787044;79;21540;-77
2022/11/22 22:53:32;;;;;;;3.33;3.03;;;;;;;;;;1781189;78;21958;-76
2022/11/22 22:55:58;;;;;;;4.13;3.00;;;;;;;;;;1779655;78;21016;-77
2022/11/22 22:58:25;;;;;;;3.40;2.87;;;;;;;;;;1777179;78;21037;-76
2022/11/22 23:00:51;;;;;;;3.43;2.80;;;;;;;;;;1781460;78;21055;-77
2022/11/22 23:03:17;;;;;;;3.60;3.27;;;;;;;;;;1780528;79;21564;-77
2022/11/22 23:05:43;;;;;;;4.03;2.83;;;;;;;;;;1777722;78;21816;-79
2022/11/22 23:08:09;;;;;;;5.97;3.77;;;;;;;;;;1780845;78;21053;-77
2022/11/22 23:10:37;;;;;;;4.53;3.77;;;;;;;;;;1783160;79;21033;-79
2022/11/22 23:13:04;;;;;;;3.50;3.20;;;;;;;;;;1776947;78;21105;-78
2022/11/22 23:15:30;;;;;;;4.90;2.93;;;;;;;;;;1784489;78;21029;-79
2022/11/22 23:17:57;;;;;;;4.97;3.37;;;;;;;;;;1777161;79;21785;-76
2022/11/22 23:20:23;;;;;;;3.53;3.00;;;;;;;;;;1778433;79;21025;-79
2022/11/22 23:35:00;;;;;;;3.43;2.57;;;;;;;;;;1800049;77;27248;-52
2022/11/22 23:37:27;;;;;;;3.83;3.23;;;;;;;;;;1766821;78;21048;-51
2022/11/22 23:39:53;;;;;;;3.27;3.07;;;;;;;;;;1733537;80;23145;-52
2022/11/22 23:42:19;;;;;;;4.60;2.70;;;;;;;;;;1749115;79;21581;-51
2022/11/22 23:44:46;;;;;;;3.87;2.20;;;;;;;;;;1748880;79;21108;-51
2022/11/22 23:47:12;;;;;;;3.00;2.70;;;;;;;;;;1751556;79;21170;-52
2022/11/22 23:49:38;;;;;;;5.10;2.80;;;;;;;;;;1770734;78;21082;-52
2022/11/22 23:52:05;;;;;;;3.20;2.53;;;;;;;;;;1770860;78;21817;-52
2022/11/22 23:54:31;;;;;;;3.47;2.17;;;;;;;;;;1765534;78;21069;-53
2022/11/22 23:56:58;;;;;;;5.57;2.20;;;;;;;;;;1754667;79;21096;-52
2022/11/22 23:59:24;;;;;;;4.43;2.43;;;;;;;;;;1766627;78;21112;-52
